createdAt,value
2018-04-24T00:02:08.035Z,78.00
2018-04-24T00:04:37.794Z,78.90
2018-04-24T00:07:06.274Z,79.00
2018-04-24T00:09:36.277Z,79.40
2018-04-24T00:12:04.874Z,79.00
2018-04-24T00:14:33.514Z,79.10
2018-04-24T00:17:02.514Z,78.90
2018-04-24T00:19:31.474Z,78.30
2018-04-24T00:22:00.481Z,78.50
2018-04-24T00:24:29.254Z,78.80
2018-04-24T00:26:58.193Z,78.20
2018-04-24T00:29:27.374Z,78.80
2018-04-24T00:31:56.495Z,78.90
2018-04-24T00:34:25.749Z,79.60
2018-04-24T00:36:54.475Z,79.50
2018-04-24T00:39:23.694Z,79.90
2018-04-24T00:41:52.955Z,80.20
2018-04-24T00:44:22.357Z,81.10
2018-04-24T00:46:51.194Z,80.50
2018-04-24T00:49:20.101Z,80.80
2018-04-24T00:51:48.654Z,80.90
2018-04-24T00:54:17.914Z,80.90
2018-04-24T00:56:46.914Z,80.80
2018-04-24T00:59:15.637Z,81.10
2018-04-24T01:01:44.581Z,81.00
2018-04-24T01:04:13.614Z,81.90
2018-04-24T01:06:43.178Z,81.00
2018-04-24T01:09:12.358Z,81.90
2018-04-24T01:11:40.934Z,81.40
2018-04-24T01:14:10.120Z,81.60
2018-04-24T01:16:39.614Z,80.90
2018-04-24T01:19:08.322Z,80.90
2018-04-24T01:21:37.374Z,81.10
2018-04-24T01:24:07.117Z,80.70
2018-04-24T01:26:36.875Z,80.10
2018-04-24T01:29:05.378Z,80.10
2018-04-24T01:31:33.955Z,80.00
2018-04-24T01:34:02.797Z,79.50
2018-04-24T01:36:31.775Z,79.60
2018-04-24T01:39:01.076Z,79.10
2018-04-24T01:41:30.336Z,78.60
2018-04-24T01:43:58.855Z,78.50
2018-04-24T01:46:27.557Z,77.90
2018-04-24T01:48:56.715Z,78.30
2018-04-24T01:51:24.995Z,78.00
2018-04-24T01:53:53.656Z,78.30
2018-04-24T01:56:22.986Z,78.10
2018-04-24T01:58:51.467Z,78.30
2018-04-24T02:01:20.206Z,77.50
2018-04-24T02:03:48.966Z,77.30
2018-04-24T02:06:18.606Z,77.50
2018-04-24T02:08:47.985Z,77.50
2018-04-24T02:11:16.726Z,77.70
2018-04-24T02:13:45.285Z,76.60
2018-04-24T02:16:14.925Z,77.20
2018-04-24T02:18:43.406Z,77.50
2018-04-24T02:21:12.427Z,77.50
2018-04-24T02:23:42.152Z,77.40
2018-04-24T02:26:10.650Z,76.80
2018-04-24T02:28:39.405Z,76.70
2018-04-24T02:31:09.410Z,76.70
2018-04-24T02:33:38.147Z,76.60
2018-04-24T02:36:07.145Z,76.80
2018-04-24T02:38:36.126Z,77.50
2018-04-24T02:41:04.988Z,77.40
2018-04-24T02:43:34.387Z,77.90
2018-04-24T02:46:04.308Z,78.90
2018-04-24T02:48:33.147Z,78.80
2018-04-24T02:51:02.651Z,78.80
2018-04-24T02:53:32.167Z,79.50
2018-04-24T02:56:01.126Z,79.40
2018-04-24T02:58:30.406Z,79.50
2018-04-24T03:00:59.366Z,79.70
2018-04-24T03:03:28.726Z,80.30
2018-04-24T03:05:58.126Z,80.10
2018-04-24T03:08:26.926Z,80.10
2018-04-24T03:10:56.371Z,80.20
2018-04-24T03:13:25.166Z,80.00
2018-04-24T03:15:54.931Z,80.20
2018-04-24T03:18:24.565Z,80.30
2018-04-24T03:20:53.305Z,80.20
2018-04-24T03:23:22.806Z,80.40
2018-04-24T03:25:52.126Z,80.60
2018-04-24T03:28:21.626Z,80.90
2018-04-24T03:30:50.567Z,81.60
2018-04-24T03:33:19.626Z,81.00
2018-04-24T03:35:49.627Z,81.10
2018-04-24T03:38:18.886Z,81.50
2018-04-24T03:40:47.887Z,81.80
2018-04-24T03:43:16.888Z,81.80
2018-04-24T03:45:47.647Z,81.80
2018-04-24T03:48:17.166Z,81.70
2018-04-24T03:50:46.027Z,81.30
2018-04-24T03:53:15.147Z,81.70
2018-04-24T03:55:43.988Z,81.90
2018-04-24T03:58:13.651Z,82.00
2018-04-24T04:00:42.526Z,82.40
2018-04-24T04:03:11.317Z,82.20
2018-04-24T04:05:40.107Z,81.80
2018-04-24T04:08:08.707Z,81.70
2018-04-24T04:10:37.766Z,81.20
2018-04-24T04:13:07.133Z,81.10
2018-04-24T04:15:36.107Z,81.00
2018-04-24T04:18:16.248Z,81.40
2018-04-24T04:20:58.326Z,80.80
2018-04-24T04:23:39.052Z,80.60
2018-04-24T04:26:08.409Z,80.50
2018-04-24T04:28:39.127Z,80.50
2018-04-24T04:31:09.226Z,80.20
2018-04-24T04:33:37.967Z,79.90
2018-04-24T04:36:07.206Z,79.70
2018-04-24T04:38:36.707Z,79.20
2018-04-24T04:41:05.467Z,78.70
2018-04-24T04:43:34.367Z,78.80
2018-04-24T04:46:04.187Z,78.10
2018-04-24T04:48:32.929Z,78.00
2018-04-24T04:51:01.928Z,77.90
2018-04-24T04:53:31.167Z,78.10
2018-04-24T04:56:00.299Z,77.40
2018-04-24T04:58:29.469Z,78.20
2018-04-24T05:00:58.808Z,78.00
2018-04-24T05:03:27.688Z,77.60
2018-04-24T05:05:56.608Z,78.20
2018-04-24T05:08:25.628Z,77.90
2018-04-24T05:10:54.747Z,78.10
2018-04-24T05:13:24.487Z,77.70
2018-04-24T05:15:53.647Z,77.50
2018-04-24T05:18:22.487Z,76.80
2018-04-24T05:20:51.887Z,76.70
2018-04-24T05:23:21.407Z,76.00
2018-04-24T05:25:51.447Z,76.90
2018-04-24T05:28:20.667Z,76.30
2018-04-24T05:30:49.927Z,75.80
2018-04-24T05:33:18.934Z,76.30
2018-04-24T05:35:48.044Z,75.30
2018-04-24T05:38:16.929Z,75.00
2018-04-24T05:40:45.887Z,75.50
2018-04-24T05:43:15.607Z,74.80
2018-04-24T05:45:45.667Z,74.60
2018-04-24T05:48:14.687Z,73.90
2018-04-24T05:50:44.428Z,74.10
2018-04-24T05:53:14.072Z,73.60
2018-04-24T05:55:43.169Z,74.00
2018-04-24T05:58:12.447Z,74.10
2018-04-24T06:00:41.367Z,72.80
2018-04-24T06:03:10.419Z,75.10
2018-04-24T06:05:40.519Z,76.40
2018-04-24T06:08:09.939Z,76.30
2018-04-24T06:10:39.696Z,76.70
2018-04-24T06:13:08.949Z,76.90
2018-04-24T06:15:38.716Z,78.10
2018-04-24T06:18:08.315Z,77.40
2018-04-24T06:20:36.955Z,77.90
2018-04-24T06:23:06.975Z,78.20
2018-04-24T06:25:36.316Z,78.10
2018-04-24T06:28:05.456Z,78.10
2018-04-24T06:30:34.195Z,78.60
2018-04-24T06:33:02.936Z,78.70
2018-04-24T06:35:31.675Z,79.10
2018-04-24T06:38:00.658Z,79.10
2018-04-24T06:40:29.401Z,79.30
2018-04-24T06:42:58.142Z,78.40
2018-04-24T06:45:26.880Z,78.20
2018-04-24T06:47:55.544Z,76.80
2018-04-24T06:50:24.341Z,76.80
2018-04-24T06:52:53.601Z,75.50
2018-04-24T06:55:22.602Z,74.30
2018-04-24T06:57:51.340Z,74.00
2018-04-24T07:00:20.121Z,73.90
2018-04-24T07:02:49.323Z,73.20
2018-04-24T07:05:18.569Z,72.30
2018-04-24T07:07:47.289Z,72.20
2018-04-24T07:10:15.889Z,71.40
2018-04-24T07:12:44.209Z,71.40
2018-04-24T07:15:12.348Z,71.70
2018-04-24T07:17:42.529Z,70.80
2018-04-24T07:20:11.535Z,71.60
2018-04-24T07:22:40.257Z,71.70
2018-04-24T07:25:09.178Z,71.60
2018-04-24T07:27:38.993Z,70.90
2018-04-24T07:30:08.009Z,70.80
2018-04-24T07:32:37.489Z,68.40
2018-04-24T07:35:07.250Z,68.00
2018-04-24T07:37:35.809Z,68.40
2018-04-24T07:40:04.471Z,68.00
2018-04-24T07:42:32.870Z,67.30
2018-04-24T07:45:01.700Z,66.10
2018-04-24T07:47:31.193Z,66.30
2018-04-24T07:49:59.609Z,66.30
2018-04-24T07:52:28.408Z,65.30
2018-04-24T07:54:57.429Z,64.70
2018-04-24T07:57:26.429Z,64.30
2018-04-24T07:59:55.829Z,64.50
2018-04-24T08:02:25.157Z,64.00
2018-04-24T08:04:54.009Z,65.00
2018-04-24T08:07:23.195Z,64.70
2018-04-24T08:09:51.869Z,63.30
2018-04-24T08:12:20.889Z,63.50
2018-04-24T08:14:50.249Z,63.80
2018-04-24T08:17:19.630Z,62.90
2018-04-24T08:19:48.829Z,62.80
2018-04-24T08:22:18.229Z,62.80
2018-04-24T08:24:47.109Z,60.30
2018-04-24T08:27:15.349Z,60.10
2018-04-24T08:29:44.849Z,59.80
2018-04-24T08:32:13.321Z,59.60
2018-04-24T08:34:42.180Z,59.00
2018-04-24T08:37:11.562Z,59.70
2018-04-24T08:39:40.603Z,59.30
2018-04-24T08:42:09.843Z,59.10
2018-04-24T08:44:39.069Z,58.60
2018-04-24T08:47:07.766Z,58.30
2018-04-24T08:49:36.801Z,58.50
2018-04-24T08:52:06.431Z,59.10
2018-04-24T08:54:35.551Z,58.50
2018-04-24T08:57:05.080Z,58.70
2018-04-24T08:59:33.518Z,58.20
2018-04-24T09:02:02.538Z,58.60
2018-04-24T09:04:30.999Z,58.30
2018-04-24T09:07:00.249Z,57.80
2018-04-24T09:09:29.502Z,57.80
2018-04-24T09:11:57.721Z,57.50
2018-04-24T09:14:27.225Z,57.30
2018-04-24T09:16:56.484Z,56.90
2018-04-24T09:19:25.483Z,57.50
2018-04-24T09:21:55.443Z,58.60
2018-04-24T09:24:24.030Z,58.00
2018-04-24T09:26:52.959Z,58.30
2018-04-24T09:29:21.185Z,58.80
2018-04-24T09:31:49.666Z,59.10
2018-04-24T09:34:18.926Z,58.80
2018-04-24T09:36:47.725Z,58.50
2018-04-24T09:39:17.425Z,58.20
2018-04-24T09:41:46.166Z,58.40
2018-04-24T09:44:15.449Z,58.30
2018-04-24T09:46:44.417Z,58.40
2018-04-24T09:49:13.675Z,58.20
2018-04-24T09:51:42.893Z,58.00
2018-04-24T09:54:11.633Z,57.90
2018-04-24T09:56:40.400Z,58.60
2018-04-24T09:59:09.080Z,58.60
2018-04-24T10:01:37.927Z,58.30
2018-04-24T10:04:07.126Z,58.40
2018-04-24T10:06:36.604Z,58.50
2018-04-24T10:09:05.622Z,57.80
2018-04-24T10:11:34.339Z,57.50
2018-04-24T10:14:03.583Z,57.10
2018-04-24T10:16:32.044Z,56.50
2018-04-24T10:19:00.681Z,55.00
2018-04-24T10:21:30.303Z,54.80
2018-04-24T10:23:58.808Z,54.90
2018-04-24T10:26:27.559Z,54.80
2018-04-24T10:28:56.275Z,54.10
2018-04-24T10:31:25.535Z,54.20
2018-04-24T10:33:54.515Z,54.00
2018-04-24T10:36:23.779Z,53.00
2018-04-24T10:38:52.755Z,52.50
2018-04-24T10:41:21.476Z,52.90
2018-04-24T10:43:49.700Z,52.20
2018-04-24T10:46:19.083Z,52.00
2018-04-24T10:48:47.711Z,52.00
2018-04-24T10:51:16.935Z,52.30
2018-04-24T10:53:45.677Z,51.20
2018-04-24T10:56:14.439Z,50.00
2018-04-24T10:58:44.272Z,50.10
2018-04-24T11:01:13.172Z,50.10
2018-04-24T11:03:42.168Z,49.80
2018-04-24T11:06:10.908Z,50.60
2018-04-24T11:08:39.655Z,49.70
2018-04-24T11:11:09.098Z,49.70
2018-04-24T11:13:38.176Z,50.30
2018-04-24T11:16:06.872Z,49.60
2018-04-24T11:18:36.141Z,49.10
2018-04-24T11:21:05.648Z,49.10
2018-04-24T11:23:34.891Z,48.90
2018-04-24T11:26:04.122Z,48.10
2018-04-24T11:28:32.902Z,48.10
2018-04-24T11:31:02.123Z,47.20
2018-04-24T11:33:31.401Z,47.00
2018-04-24T11:36:00.370Z,47.00
2018-04-24T11:38:29.362Z,47.00
2018-04-24T11:40:57.828Z,47.00
2018-04-24T11:43:26.679Z,45.90
2018-04-24T11:45:55.375Z,45.80
2018-04-24T11:48:24.055Z,45.90
2018-04-24T11:50:52.275Z,44.80
2018-04-24T11:53:21.252Z,44.40
2018-04-24T11:55:49.496Z,44.40
2018-04-24T11:58:18.382Z,44.70
2018-04-24T12:00:47.315Z,44.60
2018-04-24T12:03:16.235Z,44.00
2018-04-24T12:05:46.235Z,43.90
2018-04-24T12:08:14.558Z,43.70
2018-04-24T12:10:43.543Z,43.50
2018-04-24T12:13:12.697Z,43.40
2018-04-24T12:15:42.177Z,43.40
2018-04-24T12:18:11.207Z,44.00
2018-04-24T12:20:40.966Z,44.00
2018-04-24T12:23:10.214Z,44.00
2018-04-24T12:25:38.946Z,43.20
2018-04-24T12:28:07.935Z,43.90
2018-04-24T12:30:36.985Z,43.50
2018-04-24T12:33:06.155Z,43.40
2018-04-24T12:35:35.168Z,42.70
2018-04-24T12:38:03.936Z,43.30
2018-04-24T12:40:33.060Z,43.20
2018-04-24T12:43:02.140Z,42.50
2018-04-24T12:45:30.632Z,42.70
2018-04-24T12:47:59.397Z,42.50
2018-04-24T12:50:28.635Z,42.10
2018-04-24T12:52:58.116Z,41.50
2018-04-24T12:55:26.433Z,41.50
2018-04-24T12:57:55.342Z,40.70
2018-04-24T13:00:24.333Z,40.80
2018-04-24T13:02:52.637Z,40.30
2018-04-24T13:05:22.074Z,40.00
2018-04-24T13:07:50.828Z,39.50
2018-04-24T13:10:20.576Z,39.70
2018-04-24T13:12:49.845Z,39.50
2018-04-24T13:15:19.136Z,40.50
2018-04-24T13:17:47.835Z,38.90
2018-04-24T13:20:16.559Z,38.80
2018-04-24T13:22:46.231Z,38.60
2018-04-24T13:25:15.554Z,37.40
2018-04-24T13:27:44.449Z,37.00
2018-04-24T13:30:14.324Z,37.00
2018-04-24T13:32:44.067Z,37.00
2018-04-24T13:35:13.822Z,36.60
2018-04-24T13:37:42.836Z,36.50
2018-04-24T13:40:11.814Z,36.00
2018-04-24T13:42:40.333Z,36.10
2018-04-24T13:45:09.554Z,35.10
2018-04-24T13:47:39.834Z,35.70
2018-04-24T13:50:08.723Z,35.60
2018-04-24T13:52:38.335Z,34.70
2018-04-24T13:55:07.874Z,35.10
2018-04-24T13:57:36.935Z,34.60
2018-04-24T14:00:06.314Z,35.10
2018-04-24T14:02:35.015Z,34.00
2018-04-24T14:05:04.314Z,34.40
2018-04-24T14:07:32.874Z,34.20
2018-04-24T14:10:01.535Z,34.20
2018-04-24T14:12:31.534Z,34.40
2018-04-24T14:15:01.294Z,34.20
2018-04-24T14:17:29.754Z,33.70
2018-04-24T14:19:58.267Z,34.20
2018-04-24T14:22:27.499Z,33.90
2018-04-24T14:24:56.259Z,33.40
2018-04-24T14:27:26.021Z,33.90
2018-04-24T14:29:54.447Z,33.90
2018-04-24T14:32:23.236Z,34.40
2018-04-24T14:34:51.557Z,34.80
2018-04-24T14:37:20.716Z,35.20
2018-04-24T14:39:49.456Z,34.80
2018-04-24T14:42:22.856Z,35.50
2018-04-24T14:44:51.326Z,35.50
2018-04-24T14:47:20.337Z,35.20
2018-04-24T14:49:48.736Z,35.20
2018-04-24T14:52:18.243Z,35.50
2018-04-24T14:54:47.059Z,35.70
2018-04-24T14:57:15.717Z,36.60
2018-04-24T14:59:44.457Z,37.80
2018-04-24T15:02:13.217Z,36.90
2018-04-24T15:04:41.959Z,35.80
2018-04-24T15:07:11.263Z,36.10
2018-04-24T15:09:40.433Z,36.00
2018-04-24T15:12:08.952Z,35.70
2018-04-24T15:14:38.158Z,35.90
2018-04-24T15:17:07.567Z,35.70
2018-04-24T15:19:37.166Z,35.50
2018-04-24T15:22:05.457Z,36.10
2018-04-24T15:24:34.399Z,36.00
2018-04-24T15:27:03.086Z,36.60
2018-04-24T15:29:32.060Z,36.40
2018-04-24T15:32:00.962Z,36.20
2018-04-24T15:34:30.119Z,36.00
2018-04-24T15:36:58.853Z,35.90
2018-04-24T15:39:29.085Z,36.00
2018-04-24T15:41:58.103Z,36.60
2018-04-24T15:44:26.803Z,35.90
2018-04-24T15:46:55.774Z,36.20
2018-04-24T15:49:25.209Z,36.30
2018-04-24T15:51:54.362Z,36.40
2018-04-24T15:54:24.362Z,36.20
2018-04-24T15:56:53.441Z,36.10
2018-04-24T15:59:22.603Z,35.90
2018-04-24T16:01:51.461Z,36.20
2018-04-24T16:04:20.308Z,36.20
2018-04-24T16:06:48.801Z,35.60
2018-04-24T16:09:17.021Z,36.10
2018-04-24T16:11:46.582Z,35.70
2018-04-24T16:14:15.302Z,35.80
2018-04-24T16:16:44.521Z,36.10
2018-04-24T16:19:13.864Z,36.20
2018-04-24T16:21:43.041Z,36.40
2018-04-24T16:24:12.773Z,36.10
2018-04-24T16:26:42.301Z,36.00
2018-04-24T16:29:12.821Z,36.20
2018-04-24T16:31:41.841Z,36.10
2018-04-24T16:34:10.600Z,36.30
2018-04-24T16:36:39.401Z,36.00
2018-04-24T16:39:08.281Z,35.70
2018-04-24T16:41:37.079Z,35.20
2018-04-24T16:44:06.262Z,35.20
2018-04-24T16:46:34.689Z,35.30
2018-04-24T16:49:03.969Z,35.00
2018-04-24T16:51:33.525Z,35.20
2018-04-24T16:54:02.620Z,35.20
2018-04-24T16:56:31.084Z,35.40
2018-04-24T16:59:00.480Z,35.70
2018-04-24T17:01:29.981Z,35.60
2018-04-24T17:03:58.761Z,35.60
2018-04-24T17:06:27.721Z,35.60
2018-04-24T17:08:56.441Z,36.10
2018-04-24T17:11:24.981Z,35.80
2018-04-24T17:13:53.163Z,36.00
2018-04-24T17:16:22.387Z,35.90
2018-04-24T17:18:51.161Z,35.90
2018-04-24T17:21:20.900Z,36.00
2018-04-24T17:23:49.639Z,36.20
2018-04-24T17:26:18.119Z,36.30
2018-04-24T17:28:47.880Z,36.30
2018-04-24T17:31:16.460Z,36.80
2018-04-24T17:33:45.619Z,36.80
2018-04-24T17:36:14.864Z,36.70
2018-04-24T17:38:43.089Z,36.50
2018-04-24T17:41:12.080Z,36.30
2018-04-24T17:43:41.380Z,36.70
2018-04-24T17:46:10.300Z,38.30
2018-04-24T17:48:38.842Z,41.80
2018-04-24T17:51:08.621Z,42.40
2018-04-24T17:53:37.301Z,43.30
2018-04-24T17:56:06.401Z,43.30
2018-04-24T17:58:35.041Z,43.20
2018-04-24T18:01:03.381Z,43.70
2018-04-24T18:03:32.841Z,44.10
2018-04-24T18:06:02.042Z,44.10
2018-04-24T18:08:31.042Z,43.90
2018-04-24T18:11:00.122Z,43.80
2018-04-24T18:13:29.282Z,43.80
2018-04-24T18:15:58.082Z,43.90
2018-04-24T18:18:27.229Z,44.00
2018-04-24T18:20:56.266Z,44.10
2018-04-24T18:23:25.382Z,44.10
2018-04-24T18:25:54.282Z,44.10
2018-04-24T18:28:23.722Z,44.10
2018-04-24T18:30:53.243Z,43.90
2018-04-24T18:33:21.963Z,44.20
2018-04-24T18:35:50.443Z,44.10
2018-04-24T18:38:19.684Z,44.40
2018-04-24T18:40:49.223Z,44.60
2018-04-24T18:43:18.183Z,44.60
2018-04-24T18:45:47.162Z,45.40
2018-04-24T18:48:15.663Z,44.70
2018-04-24T18:50:44.402Z,45.00
2018-04-24T18:53:13.260Z,45.10
2018-04-24T18:55:42.400Z,45.10
2018-04-24T18:58:11.640Z,45.00
2018-04-24T19:00:40.899Z,45.00
2018-04-24T19:03:09.380Z,44.90
2018-04-24T19:05:38.199Z,44.80
2018-04-24T19:08:07.621Z,44.70
2018-04-24T19:10:36.861Z,44.70
2018-04-24T19:13:05.361Z,44.70
2018-04-24T19:15:36.511Z,44.60
2018-04-24T19:18:05.911Z,44.60
2018-04-24T19:20:36.670Z,44.70
2018-04-24T19:23:05.590Z,44.90
2018-04-24T19:25:39.795Z,45.00
2018-04-24T19:28:09.033Z,45.00
2018-04-24T19:30:39.196Z,45.00
2018-04-24T19:33:08.318Z,45.10
2018-04-24T19:35:39.878Z,45.20
2018-04-24T19:38:09.859Z,45.10
2018-04-24T19:40:43.692Z,45.30
2018-04-24T19:43:12.705Z,45.40
2018-04-24T19:45:42.428Z,45.30
2018-04-24T19:48:16.350Z,45.30
2018-04-24T19:50:46.611Z,45.30
2018-04-24T19:53:15.085Z,45.30
2018-04-24T19:55:43.809Z,45.50
2018-04-24T19:58:12.590Z,45.60
2018-04-24T20:00:41.877Z,45.80
2018-04-24T20:03:10.578Z,46.60
2018-04-24T20:05:39.780Z,46.40
2018-04-24T20:08:08.679Z,46.60
2018-04-24T20:10:37.859Z,47.50
2018-04-24T20:13:07.025Z,48.00
2018-04-24T20:15:36.277Z,48.50
2018-04-24T20:18:06.099Z,48.30
2018-04-24T20:20:35.058Z,48.60
2018-04-24T20:23:04.298Z,48.70
2018-04-24T20:25:33.300Z,48.40
2018-04-24T20:28:03.044Z,48.70
2018-04-24T20:30:31.779Z,48.90
2018-04-24T20:33:01.058Z,49.30
2018-04-24T20:35:30.580Z,49.30
2018-04-24T20:38:00.337Z,49.70
2018-04-24T20:40:28.816Z,50.20
2018-04-24T20:42:58.298Z,50.40
2018-04-24T20:45:28.317Z,51.10
2018-04-24T20:47:57.743Z,51.10
2018-04-24T20:50:26.285Z,51.20
2018-04-24T20:52:56.062Z,51.50
2018-04-24T20:55:25.802Z,52.00
2018-04-24T20:57:54.542Z,52.00
2018-04-24T21:00:23.803Z,51.80
2018-04-24T21:02:52.903Z,51.90
2018-04-24T21:05:22.283Z,51.50
2018-04-24T21:07:51.764Z,51.80
2018-04-24T21:10:20.163Z,51.80
2018-04-24T21:12:49.323Z,51.50
2018-04-24T21:15:18.362Z,51.10
2018-04-24T21:17:48.534Z,51.60
2018-04-24T21:20:17.542Z,51.20
2018-04-24T21:22:47.304Z,51.50
2018-04-24T21:25:16.805Z,51.60
2018-04-24T21:27:45.487Z,51.60
2018-04-24T21:30:15.303Z,52.00
2018-04-24T21:32:44.566Z,52.20
2018-04-24T21:35:14.042Z,52.50
2018-04-24T21:37:43.002Z,52.50
2018-04-24T21:40:12.562Z,52.40
2018-04-24T21:42:42.623Z,52.40
2018-04-24T21:45:12.045Z,52.60
2018-04-24T21:47:41.842Z,52.70
2018-04-24T21:50:10.603Z,52.70
2018-04-24T21:52:39.483Z,52.80
2018-04-24T21:55:08.044Z,53.00
2018-04-24T21:57:36.762Z,52.90
2018-04-24T22:00:05.522Z,52.80
2018-04-24T22:02:34.462Z,52.80
2018-04-24T22:05:03.242Z,52.90
2018-04-24T22:07:32.542Z,52.60
2018-04-24T22:10:01.745Z,52.60
2018-04-24T22:12:30.463Z,52.70
2018-04-24T22:14:59.484Z,52.80
2018-04-24T22:17:28.342Z,52.90
2018-04-24T22:19:57.127Z,53.70
2018-04-24T22:22:26.886Z,53.40
2018-04-24T22:24:55.448Z,53.80
2018-04-24T22:27:24.753Z,54.00
2018-04-24T22:29:53.207Z,53.80
2018-04-24T22:32:22.846Z,53.00
2018-04-24T22:34:52.186Z,52.90
2018-04-24T22:37:21.807Z,52.80
2018-04-24T22:39:50.718Z,52.20
2018-04-24T22:42:20.770Z,52.10
2018-04-24T22:44:49.966Z,51.90
2018-04-24T22:47:19.207Z,51.60
2018-04-24T22:49:47.551Z,51.60
2018-04-24T22:52:16.367Z,51.70
2018-04-24T22:54:44.666Z,52.00
2018-04-24T22:57:14.448Z,51.80
2018-04-24T22:59:43.407Z,51.70
2018-04-24T23:02:12.647Z,51.70
2018-04-24T23:04:41.207Z,52.00
2018-04-24T23:07:10.127Z,51.90
2018-04-24T23:09:39.407Z,52.20
2018-04-24T23:12:19.886Z,52.20
2018-04-24T23:15:00.187Z,52.20
2018-04-24T23:17:41.187Z,52.40
2018-04-24T23:20:17.769Z,52.50
2018-04-24T23:22:47.727Z,52.50
2018-04-24T23:25:17.367Z,52.60
2018-04-24T23:27:46.127Z,52.70
2018-04-24T23:30:15.047Z,52.70
2018-04-24T23:32:43.847Z,52.70
2018-04-24T23:35:12.767Z,52.60
2018-04-24T23:37:41.567Z,52.60
2018-04-24T23:40:10.607Z,52.60
2018-04-24T23:42:39.799Z,52.50
2018-04-24T23:45:08.608Z,52.30
2018-04-24T23:47:37.266Z,52.10
2018-04-24T23:50:06.031Z,52.00
2018-04-24T23:52:35.567Z,52.00
2018-04-24T23:55:05.047Z,52.00
2018-04-24T23:57:34.307Z,52.00
